Dauntless Aviation
Greetings, Guest! To participate, [sign up for a free account] or [log in]
Airports Europe United Kingdom
EGLC
LCY

London City

London, UNITED KINGDOM

Airport Info
Edit

Location

Latitude / Longitude: 51°30'18"N / 0°3'12"E
  51°30.3'N / 0°3.21'E
  51.5050 / 0.0535

Nearby radio navigation aids

LCY CITY NDB on field.

Runway Information

Runway 10 /28

Dimensions: 4948 x 98 ft.
Surface: ASP
 
Runway 10
Runway 28
Latitude: 51.505528 51.504922
Longitude: 0.045753 0.064953
Elevation: 16 ft. 16 ft.
Runway true heading: 91.1 271.1
 

Instrument Procedures

  Control Zone and Control Area Chart
  Aircraft Parking/Docking Chart
  Aerodrome Chart

STARs (Standard Terminal Arrivals)

  STAR via SPEAR (Northwest)
  STAR via ALKIN (South)
  STAR via SPEAR (East)
  STAR via SPEAR (West)
  STAR via SPEAR (Alternate Holding at LOGAN and ALKIN)

IAPs (Instrument Approach Procedures)

  LOC/DME/NDB (L) Rwy 27 (Aircraft CAT A/B/C)
  Visual Approach Profile Rwy 27
  ILS (5.5°GP) /DME/NDB (L) Rwy 27 (Aircraft CAT A/B/C)
  Visual Approach Profile Rwy 09
  LOC/DME/NDB (L) Rwy 09
  ATC Surveillance Minimum Altitude Chart
  ILS (5.5°GP) /DME/NDB (L) Rwy 09 (Aircraft CAT A/B/C)

Departure Procedures

  SID DOVER/LYDD
  SID CLACTON
  SID SOUTHAMPTON
  SID BROOKMANS PARK/COMPTON
Satellite photo at:
Airport distance calculator
From:
Weather Reports

METAR

EGLC

EGLC 020750Z 01003KT CAVOK 16/13 Q1029
EGKB
11.4nm S
EGKB 020750Z 04002KT CAVOK 14/13 Q1030
EGWU
17.8nm W
EGWU 020750Z 03002KT 9999 SCT042 BKN070 15/12 Q1029 BLU TEMPO SCT016 WHT
EGLL
18.9nm SW
EGLL 020750Z 05003KT 9999 SCT011 SCT028 15/12 Q1029
EGSS
23.5nm N
EGSS 020750Z 04004KT 010V080 2000 BR OVC003 13/13 Q1029
EGKK
23.8nm S
EGKK 020750Z VRB03KT 9999 SCT048 16/14 Q1029

TAF

EGLC
TAF EGLC 020457Z 0206/0215 18004KT 9999 SCT035 PROB30 TEMPO 0206/0209 9000 BKN012 PROB30 TEMPO 0213/0215 7000 SHRA
EGKB
11.4nm S
TAF EGKB 020655Z 0206/0215 VRB04KT 9999 SCT025 PROB30 TEMPO 0212/0215 7000 SHRA
EGWU
17.8nm W
TAF EGWU 020449Z 0206/0224 VRB05KT 9999 SCT025 BKN060 TEMPO 0206/0210 BKN010 PROB40 TEMPO 0222/0224 7000 HZ SCT008
EGLL
18.9nm SW
TAF EGLL 020457Z 0206/0312 VRB03KT 9999 BKN030 TEMPO 0206/0208 BKN010 PROB30 TEMPO 0211/0217 8000 SHRA PROB30 0222/0224 7000 PROB30 TEMPO 0300/0308 1500 BR SCT002 BKN004 BECMG 0309/0312 18010KT
EGSS
23.5nm N
TAF AMD EGSS 020713Z 0207/0312 14005KT 4000 BR BKN003 BECMG 0207/0209 8000 BKN012 BECMG 0209/0211 9999 SCT030 PROB30 TEMPO 0213/0218 7000 SHRA PROB30 0220/0223 8000 BKN012 BECMG 0223/0302 8000 BKN012 PROB40 0300/0309 4000 BR BKN008 BECMG 0309/0312 9999 SCT030
EGKK
23.8nm S
TAF EGKK 020457Z 0206/0312 25004KT 9999 FEW040 PROB40 TEMPO 0206/0208 7000 BKN009 TEMPO 0220/0223 6000 BECMG 0223/0302 5000 BR PROB40 0302/0308 2000 BKN003 BECMG 0309/0312 18010KT 9999
Safelog

 

Dauntless Aviation

© 2007-2014 Dauntless Aviation, all rights reserved
Information provided via PilotNav comes from a variety of official and unofficial data sources. As errors are possible, do not use PilotNav for primary flight planning purposes. Verify any information that you receive via PilotNav with current and canonical charts and other official documents. The material in this database is subject to database copyrights held by Dauntless Aviation and may not be copied without the express permission of Dauntless Aviation - licenses for use of part of all of this data are available for purchase; enquire via the Dauntless Aviation helpdesk. A number of mechanisms and markers exist in the database to protect against and identify infringement / copyright. Automated queries against this website are stictly prohibited, and all activity is logged and analyzed.